createdAt,value
2018-02-07T00:00:01.799Z,4.56
2018-02-07T00:00:42.244Z,4.53
2018-02-07T00:01:22.596Z,4.5
2018-02-07T00:02:03.014Z,4.5
2018-02-07T00:02:43.353Z,4.47
2018-02-07T00:03:23.709Z,4.54
2018-02-07T00:04:04.227Z,4.42
2018-02-07T00:04:44.584Z,4.38
2018-02-07T00:05:24.972Z,4.29
2018-02-07T00:06:05.324Z,4.31
2018-02-07T00:06:45.686Z,4.32
2018-02-07T00:07:26.215Z,4.36
2018-02-07T00:08:06.531Z,4.28
2018-02-07T00:08:46.995Z,4.31
2018-02-07T00:09:27.401Z,4.28
2018-02-07T00:10:07.781Z,4.29
2018-02-07T00:10:48.187Z,4.38
2018-02-07T00:11:28.573Z,4.39
2018-02-07T00:12:08.918Z,4.35
2018-02-07T00:12:49.355Z,4.34
2018-02-07T00:13:29.753Z,4.29
2018-02-07T00:14:10.145Z,4.54
2018-02-07T00:14:50.521Z,4.47
2018-02-07T00:15:30.897Z,4.49
2018-02-07T00:16:11.237Z,4.43
2018-02-07T00:16:51.686Z,4.42
2018-02-07T00:17:32.124Z,4.5
2018-02-07T00:18:12.491Z,4.44
2018-02-07T00:18:52.995Z,4.51
2018-02-07T00:19:33.363Z,4.47
2018-02-07T00:20:13.739Z,4.54
2018-02-07T00:20:54.143Z,4.56
2018-02-07T00:21:34.502Z,4.49
2018-02-07T00:22:14.884Z,4.46
2018-02-07T00:22:55.329Z,4.5
2018-02-07T00:23:35.646Z,4.47
2018-02-07T00:24:16.134Z,4.59
2018-02-07T00:24:56.491Z,4.5
2018-02-07T00:25:36.858Z,4.46
2018-02-07T00:26:17.275Z,4.57
2018-02-07T00:26:57.626Z,4.61
2018-02-07T00:27:38.046Z,4.54
2018-02-07T00:28:18.371Z,4.47
2018-02-07T00:28:58.809Z,4.39
2018-02-07T00:29:39.207Z,4.36
2018-02-07T00:30:19.604Z,4.34
2018-02-07T00:30:59.974Z,4.29
2018-02-07T00:31:40.348Z,4.21
2018-02-07T00:32:20.790Z,4.16
2018-02-07T00:33:01.138Z,4.24
2018-02-07T00:33:41.540Z,4.06
2018-02-07T00:34:21.927Z,4.02
2018-02-07T00:35:02.284Z,3.95
2018-02-07T00:35:42.715Z,3.8
2018-02-07T00:36:23.051Z,3.92
2018-02-07T00:37:03.530Z,3.82
2018-02-07T00:37:43.870Z,3.82
2018-02-07T00:38:24.359Z,3.8
2018-02-07T00:39:04.764Z,3.89
2018-02-07T00:39:45.130Z,3.96
2018-02-07T00:40:25.506Z,3.95
2018-02-07T00:41:05.812Z,3.99
2018-02-07T00:41:46.266Z,4.06
2018-02-07T00:42:26.607Z,4.06
2018-02-07T00:43:07.058Z,4.02
2018-02-07T00:43:47.432Z,4.06
2018-02-07T00:44:27.807Z,4
2018-02-07T00:45:08.160Z,4.06
2018-02-07T00:45:48.591Z,4.02
2018-02-07T00:46:29.005Z,4.02
2018-02-07T00:47:09.414Z,4.06
2018-02-07T00:47:49.823Z,4.04
2018-02-07T00:48:30.137Z,4.06
2018-02-07T00:49:10.567Z,4.02
2018-02-07T00:49:50.917Z,4.02
2018-02-07T00:50:31.410Z,4.02
2018-02-07T00:51:11.795Z,3.99
2018-02-07T00:51:52.144Z,4.02
2018-02-07T00:52:32.584Z,4.02
2018-02-07T00:53:13.001Z,4.13
2018-02-07T00:53:53.412Z,4.31
2018-02-07T00:54:33.752Z,4.21
2018-02-07T00:55:14.126Z,4.36
2018-02-07T00:55:54.580Z,4.46
2018-02-07T00:56:34.945Z,4.5
2018-02-07T00:57:15.368Z,4.44
2018-02-07T00:57:55.745Z,4.35
2018-02-07T00:58:36.141Z,4.46
2018-02-07T00:59:16.539Z,4.42
2018-02-07T00:59:56.881Z,4.34
2018-02-07T01:00:37.302Z,4.42
2018-02-07T01:01:17.716Z,4.54
2018-02-07T01:01:58.055Z,4.51
2018-02-07T01:02:38.471Z,4.51
2018-02-07T01:03:18.895Z,4.59
2018-02-07T01:03:59.356Z,4.57
2018-02-07T01:04:39.656Z,4.44
2018-02-07T01:05:20.095Z,4.5
2018-02-07T01:06:00.504Z,4.56
2018-02-07T01:06:40.856Z,4.54
2018-02-07T01:07:21.304Z,4.53
2018-02-07T01:08:01.690Z,4.51
2018-02-07T01:08:42.024Z,4.54
2018-02-07T01:09:22.450Z,4.54
2018-02-07T01:10:02.813Z,4.54
2018-02-07T01:10:43.223Z,4.57
2018-02-07T01:11:23.641Z,4.54
2018-02-07T01:12:04.033Z,4.62
2018-02-07T01:12:44.461Z,4.67
2018-02-07T01:13:24.822Z,4.61
2018-02-07T01:14:05.215Z,4.79
2018-02-07T01:14:45.684Z,4.69
2018-02-07T01:15:26.029Z,4.79
2018-02-07T01:16:06.448Z,4.84
2018-02-07T01:16:46.841Z,4.77
2018-02-07T01:17:27.198Z,4.77
2018-02-07T01:18:07.645Z,4.9
2018-02-07T01:18:48.066Z,4.77
2018-02-07T01:19:28.478Z,4.79
2018-02-07T01:20:08.804Z,4.74
2018-02-07T01:20:49.242Z,4.77
2018-02-07T01:21:29.604Z,4.72
2018-02-07T01:22:10.029Z,4.79
2018-02-07T01:22:50.411Z,4.83
2018-02-07T01:23:30.781Z,4.77
2018-02-07T01:24:11.226Z,4.83
2018-02-07T01:24:51.542Z,4.91
2018-02-07T01:25:31.992Z,4.9
2018-02-07T01:26:12.348Z,4.96
2018-02-07T01:26:52.792Z,5.01
2018-02-07T01:27:33.168Z,4.93
2018-02-07T01:28:13.560Z,4.97
2018-02-07T01:28:53.965Z,4.94
2018-02-07T01:29:34.381Z,4.83
2018-02-07T01:30:14.788Z,4.75
2018-02-07T01:30:55.162Z,4.79
2018-02-07T01:31:35.538Z,4.77
2018-02-07T01:32:15.966Z,4.83
2018-02-07T01:32:56.349Z,4.88
2018-02-07T01:33:36.751Z,4.93
2018-02-07T01:34:17.103Z,4.86
2018-02-07T01:34:57.531Z,4.91
2018-02-07T01:35:37.932Z,4.86
2018-02-07T01:36:18.299Z,4.79
2018-02-07T01:36:58.740Z,4.8
2018-02-07T01:37:39.141Z,4.75
2018-02-07T01:38:19.478Z,4.67
2018-02-07T01:38:59.952Z,4.59
2018-02-07T01:39:40.364Z,4.65
2018-02-07T01:40:20.726Z,4.59
2018-02-07T01:41:01.174Z,4.62
2018-02-07T01:41:41.586Z,4.67
2018-02-07T01:42:22.031Z,4.65
2018-02-07T01:43:02.432Z,4.79
2018-02-07T01:43:42.878Z,4.79
2018-02-07T01:44:23.217Z,4.84
2018-02-07T01:45:03.545Z,4.8
2018-02-07T01:45:43.962Z,4.87
2018-02-07T01:46:24.409Z,4.83
2018-02-07T01:47:04.786Z,4.97
2018-02-07T01:47:45.162Z,4.86
2018-02-07T01:48:25.556Z,4.8
2018-02-07T01:49:05.945Z,4.84
2018-02-07T01:49:46.346Z,4.77
2018-02-07T01:50:26.657Z,4.79
2018-02-07T01:51:07.103Z,4.79
2018-02-07T01:51:47.555Z,4.72
2018-02-07T01:52:27.904Z,4.64
2018-02-07T01:53:08.330Z,4.74
2018-02-07T01:53:48.757Z,4.69
2018-02-07T01:54:29.113Z,4.72
2018-02-07T01:55:09.518Z,4.8
2018-02-07T01:55:49.908Z,4.86
2018-02-07T01:56:30.288Z,4.84
2018-02-07T01:57:10.725Z,4.9
2018-02-07T01:57:51.143Z,4.9
2018-02-07T01:58:31.479Z,4.88
2018-02-07T01:59:11.906Z,4.87
2018-02-07T01:59:52.388Z,4.88
2018-02-07T02:00:32.746Z,4.86
2018-02-07T02:01:13.142Z,4.86
2018-02-07T02:01:53.511Z,4.79
2018-02-07T02:02:33.958Z,4.72
2018-02-07T02:03:14.346Z,4.8
2018-02-07T02:03:54.752Z,4.8
2018-02-07T02:04:35.152Z,4.72
2018-02-07T02:05:15.617Z,4.62
2018-02-07T02:05:55.995Z,4.64
2018-02-07T02:06:36.375Z,4.62
2018-02-07T02:07:16.846Z,4.62
2018-02-07T02:07:57.225Z,4.74
2018-02-07T02:08:37.643Z,4.77
2018-02-07T02:09:17.985Z,4.74
2018-02-07T02:09:58.404Z,4.72
2018-02-07T02:10:38.835Z,4.75
2018-02-07T02:11:19.178Z,4.72
2018-02-07T02:11:59.609Z,4.67
2018-02-07T02:12:39.979Z,4.77
2018-02-07T02:13:20.342Z,4.72
2018-02-07T02:14:00.725Z,4.79
2018-02-07T02:14:41.144Z,4.8
2018-02-07T02:15:21.588Z,4.79
2018-02-07T02:16:01.996Z,4.72
2018-02-07T02:16:42.379Z,4.77
2018-02-07T02:17:22.818Z,4.94
2018-02-07T02:18:03.216Z,4.88
2018-02-07T02:18:43.650Z,4.88
2018-02-07T02:19:24.040Z,4.83
2018-02-07T02:20:04.442Z,4.9
2018-02-07T02:20:44.782Z,4.9
2018-02-07T02:21:25.223Z,4.91
2018-02-07T02:22:06.159Z,4.9
2018-02-07T02:22:45.941Z,4.77
2018-02-07T02:23:26.398Z,4.75
2018-02-07T02:24:06.842Z,4.61
2018-02-07T02:24:47.222Z,4.64
2018-02-07T02:25:27.547Z,4.62
2018-02-07T02:26:08.025Z,4.71
2018-02-07T02:26:48.407Z,4.68
2018-02-07T02:27:28.836Z,4.72
2018-02-07T02:28:09.205Z,4.72
2018-02-07T02:28:49.574Z,4.61
2018-02-07T02:29:29.998Z,4.71
2018-02-07T02:30:10.455Z,4.61
2018-02-07T02:30:50.779Z,4.64
2018-02-07T02:31:31.217Z,4.59
2018-02-07T02:32:11.595Z,4.62
2018-02-07T02:32:51.979Z,4.62
2018-02-07T02:33:32.384Z,4.59
2018-02-07T02:34:12.809Z,4.53
2018-02-07T02:34:53.228Z,4.47
2018-02-07T02:35:33.586Z,4.38
2018-02-07T02:36:13.946Z,4.53
2018-02-07T02:36:54.393Z,4.5
2018-02-07T02:37:34.828Z,4.5
2018-02-07T02:38:15.165Z,4.42
2018-02-07T02:38:55.581Z,4.42
2018-02-07T02:39:36.048Z,4.35
2018-02-07T02:40:16.379Z,4.29
2018-02-07T02:40:56.789Z,4.35
2018-02-07T02:41:37.186Z,4.32
2018-02-07T02:42:17.629Z,4.28
2018-02-07T02:42:58.018Z,4.24
2018-02-07T02:43:38.453Z,4.24
2018-02-07T02:44:18.814Z,4.26
2018-02-07T02:44:59.248Z,4.35
2018-02-07T02:45:39.636Z,4.29
2018-02-07T02:46:20.057Z,4.28
2018-02-07T02:47:00.423Z,4.1
2018-02-07T02:47:40.820Z,4.17
2018-02-07T02:48:21.167Z,4.2
2018-02-07T02:49:01.580Z,4.13
2018-02-07T02:49:41.991Z,4.14
2018-02-07T02:50:22.352Z,4.11
2018-02-07T02:51:02.784Z,4.08
2018-02-07T02:51:43.129Z,4.04
2018-02-07T02:52:23.549Z,4.08
2018-02-07T02:53:03.940Z,4.08
2018-02-07T02:53:44.383Z,4.13
2018-02-07T02:54:24.715Z,4.11
2018-02-07T02:55:05.108Z,4.18
2018-02-07T02:55:45.508Z,4.17
2018-02-07T02:56:25.890Z,4.25
2018-02-07T02:57:06.289Z,4.25
2018-02-07T02:57:46.749Z,4.28
2018-02-07T02:58:27.116Z,4.32
2018-02-07T02:59:07.484Z,4.28
2018-02-07T02:59:47.972Z,4.29
2018-02-07T03:00:28.376Z,4.44
2018-02-07T03:01:08.798Z,4.43
2018-02-07T03:01:49.168Z,4.54
2018-02-07T03:02:29.612Z,4.56
2018-02-07T03:03:10.048Z,4.61
2018-02-07T03:03:50.308Z,4.61
2018-02-07T03:04:30.739Z,4.56
2018-02-07T03:05:11.170Z,4.54
2018-02-07T03:05:51.478Z,4.61
2018-02-07T03:06:31.882Z,4.62
2018-02-07T03:07:12.307Z,4.56
2018-02-07T03:07:52.664Z,4.61
2018-02-07T03:08:33.096Z,4.64
2018-02-07T03:09:13.456Z,4.61
2018-02-07T03:09:53.877Z,4.64
2018-02-07T03:10:34.275Z,4.68
2018-02-07T03:11:14.671Z,4.59
2018-02-07T03:11:55.083Z,4.65
2018-02-07T03:12:35.476Z,4.61
2018-02-07T03:13:15.827Z,4.59
2018-02-07T03:13:56.286Z,4.56
2018-02-07T03:14:36.617Z,4.62
2018-02-07T03:15:17.065Z,4.53
2018-02-07T03:15:57.451Z,4.56
2018-02-07T03:16:37.830Z,4.51
2018-02-07T03:17:18.198Z,4.5
2018-02-07T03:17:58.576Z,4.61
2018-02-07T03:18:38.989Z,4.54
2018-02-07T03:19:19.361Z,4.65
2018-02-07T03:19:59.814Z,4.65
2018-02-07T03:20:40.148Z,4.57
2018-02-07T03:21:20.571Z,4.62
2018-02-07T03:22:01.015Z,4.59
2018-02-07T03:22:41.405Z,4.5
2018-02-07T03:23:21.757Z,4.56
2018-02-07T03:24:02.164Z,4.54
2018-02-07T03:24:42.505Z,4.53
2018-02-07T03:25:22.915Z,4.56
2018-02-07T03:26:03.276Z,4.49
2018-02-07T03:26:43.687Z,4.56
2018-02-07T03:27:24.083Z,4.5
2018-02-07T03:28:04.459Z,4.51
2018-02-07T03:28:44.833Z,4.56
2018-02-07T03:29:25.233Z,4.5
2018-02-07T03:30:05.671Z,4.51
2018-02-07T03:30:46.140Z,4.5
2018-02-07T03:31:26.577Z,4.5
2018-02-07T03:32:06.987Z,4.43
2018-02-07T03:32:47.352Z,4.38
2018-02-07T03:33:27.823Z,4.38
2018-02-07T03:34:08.124Z,4.46
2018-02-07T03:34:48.540Z,4.49
2018-02-07T03:35:28.923Z,4.49
2018-02-07T03:36:09.326Z,4.5
2018-02-07T03:36:49.760Z,4.49
2018-02-07T03:37:30.129Z,4.57
2018-02-07T03:38:10.562Z,4.54
2018-02-07T03:38:50.960Z,4.56
2018-02-07T03:39:31.264Z,4.57
2018-02-07T03:40:11.714Z,4.56
2018-02-07T03:40:52.134Z,4.5
2018-02-07T03:41:32.527Z,4.61
2018-02-07T03:42:12.924Z,4.67
2018-02-07T03:42:53.336Z,4.61
2018-02-07T03:43:33.723Z,4.61
2018-02-07T03:44:14.127Z,4.57
2018-02-07T03:44:54.536Z,4.59
2018-02-07T03:45:34.868Z,4.64
2018-02-07T03:46:15.322Z,4.61
2018-02-07T03:46:55.703Z,4.61
2018-02-07T03:47:36.075Z,4.64
2018-02-07T03:48:16.454Z,4.69
2018-02-07T03:48:56.823Z,4.65
2018-02-07T03:49:37.270Z,4.67
2018-02-07T03:50:17.665Z,4.64
2018-02-07T03:50:58.038Z,4.65
2018-02-07T03:51:38.455Z,4.62
2018-02-07T03:52:18.809Z,4.5
2018-02-07T03:52:59.256Z,4.56
2018-02-07T03:53:39.612Z,4.51
2018-02-07T03:54:19.984Z,4.46
2018-02-07T03:55:00.400Z,4.5
2018-02-07T03:55:40.854Z,4.5
2018-02-07T03:56:21.218Z,4.5
2018-02-07T03:57:01.646Z,4.43
2018-02-07T03:57:42.026Z,4.46
2018-02-07T03:58:22.420Z,4.39
2018-02-07T03:59:02.791Z,4.42
2018-02-07T03:59:43.265Z,4.5
2018-02-07T04:00:23.684Z,4.51
2018-02-07T04:01:04.087Z,4.43
2018-02-07T04:01:44.576Z,4.54
2018-02-07T04:02:25.005Z,4.5
2018-02-07T04:42:33.247Z,2.95
2018-02-07T04:43:13.535Z,2.89
2018-02-07T04:43:53.915Z,3.07
2018-02-07T04:44:34.289Z,2.94
2018-02-07T04:45:14.658Z,3.13
2018-02-07T04:47:09.283Z,3.08
2018-02-07T04:47:49.569Z,3.12
2018-02-07T04:48:29.923Z,3.08
2018-02-07T04:49:10.353Z,3.08
2018-02-07T04:49:50.730Z,3.17
2018-02-07T04:50:31.134Z,3.23
2018-02-07T04:51:11.488Z,3.23
2018-02-07T04:53:09.054Z,3.5
2018-02-07T04:53:49.426Z,3.54
2018-02-07T04:54:29.795Z,3.5
2018-02-07T04:55:10.196Z,3.56
2018-02-07T04:55:50.639Z,3.54
2018-02-07T04:56:31.017Z,3.64
2018-02-07T04:57:11.397Z,3.81
2018-02-07T04:59:10.215Z,4
2018-02-07T05:00:49.607Z,4.02
2018-02-07T05:01:32.855Z,3.98
2018-02-07T05:03:34.123Z,4.14
2018-02-07T05:05:23.171Z,4.04
2018-02-07T05:06:06.091Z,4.06
2018-02-07T05:06:46.533Z,4.07
2018-02-07T05:07:26.897Z,4.02
2018-02-07T05:08:07.274Z,4.14
2018-02-07T05:08:47.699Z,4.11
2018-02-07T05:09:28.045Z,4.14
2018-02-07T05:10:08.451Z,4.1
2018-02-07T05:10:48.840Z,4.2
2018-02-07T05:11:29.229Z,4.16
2018-02-07T05:12:09.612Z,4.14
2018-02-07T05:12:50.043Z,4.14
2018-02-07T05:13:30.441Z,4.1
2018-02-07T05:14:10.862Z,4.07
2018-02-07T05:14:51.271Z,4.2
2018-02-07T05:15:31.684Z,4.16
2018-02-07T05:16:12.109Z,4.24
2018-02-07T05:16:52.542Z,4.25
2018-02-07T05:17:32.981Z,4.34
2018-02-07T05:18:13.427Z,4.29
2018-02-07T05:18:53.766Z,4.28
2018-02-07T05:19:34.205Z,4.26
2018-02-07T05:20:14.622Z,4.18
2018-02-07T05:20:55.024Z,4.08
2018-02-07T05:21:35.419Z,4.04
2018-02-07T05:22:15.806Z,4.06
2018-02-07T05:22:56.187Z,3.99
2018-02-07T05:23:36.620Z,3.95
2018-02-07T05:24:16.984Z,3.81
2018-02-07T05:24:57.433Z,3.89
2018-02-07T05:25:37.827Z,3.84
2018-02-07T05:26:18.229Z,3.84
2018-02-07T05:26:58.661Z,3.81
2018-02-07T05:27:39.038Z,3.82
2018-02-07T05:28:19.417Z,3.81
2018-02-07T05:28:59.872Z,3.77
2018-02-07T05:29:40.238Z,3.71
2018-02-07T05:31:19.762Z,3.62
2018-02-07T05:32:01.421Z,3.6
2018-02-07T05:32:41.801Z,3.62
2018-02-07T05:33:22.202Z,3.64
2018-02-07T05:34:02.582Z,3.62
2018-02-07T05:34:42.977Z,3.57
2018-02-07T05:35:23.397Z,3.53
2018-02-07T05:36:03.788Z,3.62
2018-02-07T05:36:44.177Z,3.57
2018-02-07T05:37:24.618Z,3.6
2018-02-07T05:38:04.942Z,3.6
2018-02-07T05:38:45.345Z,3.57
2018-02-07T05:39:25.771Z,3.6
2018-02-07T05:40:06.147Z,3.6
2018-02-07T05:40:46.574Z,3.54
2018-02-07T05:41:26.998Z,3.57
2018-02-07T05:42:07.394Z,3.53
2018-02-07T05:42:47.793Z,3.5
2018-02-07T05:43:28.172Z,3.34
2018-02-07T05:44:08.533Z,3.42
2018-02-07T05:44:48.915Z,3.31
2018-02-07T05:45:29.321Z,3.26
2018-02-07T05:46:09.740Z,3.26
2018-02-07T05:46:50.158Z,3.2
2018-02-07T05:47:30.595Z,3.19
2018-02-07T05:48:11.071Z,3.25
2018-02-07T05:48:51.408Z,3.23
2018-02-07T05:49:31.766Z,3.19
2018-02-07T05:50:12.235Z,3.12
2018-02-07T05:50:52.657Z,3.08
2018-02-07T05:51:33.115Z,3.12
2018-02-07T05:52:13.600Z,3.15
2018-02-07T05:52:54.061Z,3.08
2018-02-07T05:53:34.465Z,3.07
2018-02-07T05:54:14.873Z,3.1
2018-02-07T05:54:55.363Z,3.07
2018-02-07T05:55:35.736Z,3.1
2018-02-07T05:56:16.139Z,2.97
2018-02-07T05:56:56.533Z,3.02
2018-02-07T05:57:36.924Z,2.94
2018-02-07T05:58:17.343Z,3.07
2018-02-07T05:58:57.765Z,3.04
2018-02-07T05:59:38.134Z,2.99
2018-02-07T06:00:18.532Z,2.9
2018-02-07T06:00:58.948Z,2.87
2018-02-07T06:01:39.347Z,2.81
2018-02-07T06:02:20.428Z,2.83
2018-02-07T06:03:00.808Z,2.77
2018-02-07T06:03:41.231Z,2.79
2018-02-07T06:05:20.571Z,2.86
2018-02-07T06:06:06.894Z,2.99
2018-02-07T06:06:54.529Z,2.94
2018-02-07T06:07:41.927Z,3.01
2018-02-07T06:08:21.736Z,2.97
2018-02-07T06:09:02.140Z,2.95
2018-02-07T06:09:42.523Z,2.95
2018-02-07T06:10:22.913Z,3.01
2018-02-07T06:11:03.352Z,3.02
2018-02-07T06:11:43.803Z,3.12
2018-02-07T06:13:42.681Z,3.08
2018-02-07T06:14:28.650Z,2.98
2018-02-07T06:15:12.001Z,3.1
2018-02-07T06:15:52.401Z,3.02
2018-02-07T06:16:32.772Z,3.07
2018-02-07T06:17:13.477Z,3.02
2018-02-07T06:19:14.411Z,2.84
2018-02-07T06:21:20.304Z,3.1
2018-02-07T06:22:02.409Z,3.02
2018-02-07T06:22:46.002Z,3.02
2018-02-07T06:23:26.399Z,3.1
2018-02-07T06:24:06.861Z,2.99
2018-02-07T06:24:47.227Z,2.99
2018-02-07T06:25:27.977Z,2.99
2018-02-07T06:26:08.456Z,2.83
2018-02-07T06:26:48.921Z,2.9
2018-02-07T06:27:29.296Z,2.89
2018-02-07T06:28:09.802Z,2.89
2018-02-07T06:28:50.195Z,2.89
2018-02-07T06:29:30.599Z,2.97
2018-02-07T06:30:10.964Z,2.97
2018-02-07T06:30:51.452Z,2.98
2018-02-07T06:31:31.745Z,2.99
2018-02-07T06:33:49.028Z,2.98
2018-02-07T06:34:38.023Z,2.95
2018-02-07T06:35:21.110Z,2.94
2018-02-07T06:36:02.260Z,2.99
2018-02-07T06:36:43.561Z,2.97
2018-02-07T06:37:23.062Z,2.99
2018-02-07T06:39:16.039Z,2.99
2018-02-07T06:40:04.169Z,2.87
2018-02-07T06:40:47.235Z,2.86
2018-02-07T06:41:27.653Z,2.89
2018-02-07T06:42:08.122Z,2.89
2018-02-07T06:42:48.468Z,2.98
2018-02-07T06:43:28.924Z,2.95
2018-02-07T06:44:09.666Z,3.01
2018-02-07T06:44:49.908Z,2.94
2018-02-07T06:45:30.174Z,3.07
2018-02-07T06:46:10.578Z,3.04
2018-02-07T06:46:51.067Z,3.05
2018-02-07T06:47:31.425Z,3.08
2018-02-07T06:48:11.836Z,3.08
2018-02-07T06:48:52.263Z,3.17
2018-02-07T06:49:32.575Z,3.22
2018-02-07T06:50:13.016Z,3.13
2018-02-07T06:50:53.386Z,3.22
2018-02-07T06:51:33.815Z,3.2
2018-02-07T06:52:14.341Z,3.22
2018-02-07T06:52:54.773Z,3.35
2018-02-07T06:53:35.221Z,3.35
2018-02-07T06:54:15.625Z,3.37
2018-02-07T06:54:56.022Z,3.35
2018-02-07T06:55:36.446Z,3.31
2018-02-07T06:56:17.488Z,3.37
2018-02-07T06:56:58.018Z,3.46
2018-02-07T06:57:38.512Z,3.45
2018-02-07T06:58:18.872Z,3.56
2018-02-07T06:58:59.297Z,3.6
2018-02-07T06:59:39.686Z,3.63
2018-02-07T07:00:20.896Z,3.64
2018-02-07T07:01:01.674Z,3.77
2018-02-07T07:01:41.427Z,3.81
2018-02-07T07:02:22.948Z,3.93
2018-02-07T07:03:04.204Z,4.06
2018-02-07T07:03:45.174Z,4.17
2018-02-07T07:04:25.816Z,4.21
2018-02-07T07:05:06.413Z,4.25
2018-02-07T07:05:46.856Z,4.28
2018-02-07T07:06:27.280Z,4.25
2018-02-07T07:07:07.758Z,4.25
2018-02-07T07:07:48.125Z,4.17
2018-02-07T07:08:28.598Z,4.08
2018-02-07T07:09:09.010Z,4.02
2018-02-07T07:09:49.468Z,4.04
2018-02-07T07:10:29.952Z,3.96
2018-02-07T07:11:10.355Z,3.93
2018-02-07T07:11:50.919Z,3.84
2018-02-07T07:12:31.161Z,3.84
2018-02-07T07:13:11.890Z,3.81
2018-02-07T07:15:08.686Z,3.8
2018-02-07T07:16:50.301Z,3.96
2018-02-07T07:18:24.962Z,3.88
2018-02-07T07:19:16.438Z,3.92
2018-02-07T07:21:22.679Z,3.96
2018-02-07T07:27:01.260Z,4.08
2018-02-07T07:30:01.408Z,4.24
2018-02-07T07:30:48.559Z,4.26
2018-02-07T07:31:27.773Z,4.21
2018-02-07T07:32:08.189Z,4.34
2018-02-07T07:32:48.630Z,4.28
2018-02-07T07:33:28.981Z,4.31
2018-02-07T07:34:09.356Z,4.18
2018-02-07T07:34:51.067Z,4.13
2018-02-07T07:36:46.937Z,3.99
2018-02-07T07:37:27.836Z,4.02
2018-02-07T07:38:08.370Z,4.08
2018-02-07T07:38:49.509Z,4.07
2018-02-07T07:39:29.942Z,4.16
2018-02-07T07:40:10.369Z,4.1
2018-02-07T07:40:50.778Z,4.02
2018-02-07T07:41:31.212Z,3.95
2018-02-07T07:43:49.793Z,3.99
2018-02-07T07:44:40.003Z,3.89
2018-02-07T07:47:24.292Z,3.82
2018-02-07T07:48:59.490Z,3.8
2018-02-07T07:50:43.332Z,3.54
2018-02-07T07:58:29.543Z,3.45
2018-02-07T07:59:28.404Z,3.45
2018-02-07T08:01:11.595Z,3.44
2018-02-07T08:03:18.448Z,3.42
2018-02-07T08:05:50.575Z,3.57
2018-02-07T08:06:43.157Z,3.59
2018-02-07T08:09:03.333Z,3.78
2018-02-07T08:09:58.341Z,3.89
2018-02-07T08:10:52.023Z,3.86
2018-02-07T08:11:56.205Z,3.93
2018-02-07T08:12:51.144Z,3.81
2018-02-07T08:13:44.236Z,3.72
2018-02-07T08:14:25.361Z,3.68
2018-02-07T08:15:08.194Z,3.72
2018-02-07T08:15:48.696Z,3.75
2018-02-07T08:16:29.120Z,3.67
2018-02-07T08:17:09.651Z,3.64
2018-02-07T08:17:50.265Z,3.62
2018-02-07T08:18:30.719Z,3.84
2018-02-07T08:19:11.158Z,3.98
2018-02-07T08:19:51.671Z,3.95
2018-02-07T08:20:32.826Z,3.95
2018-02-07T08:21:28.311Z,3.99
2018-02-07T08:23:32.079Z,4.29
2018-02-07T08:25:09.030Z,4.32
2018-02-07T08:27:09.195Z,4.56
2018-02-07T08:30:41.176Z,4.93
2018-02-07T08:31:55.192Z,4.87
2018-02-07T08:32:49.173Z,4.87
2018-02-07T08:33:41.312Z,4.93
2018-02-07T08:47:53.150Z,5.04
2018-02-07T08:50:03.342Z,5.15
2018-02-07T08:52:16.210Z,5.44
2018-02-07T08:53:15.383Z,5.65
2018-02-07T08:54:19.750Z,6.01
2018-02-07T08:55:25.944Z,6.1
2018-02-07T09:00:09.664Z,7.09
2018-02-07T09:04:13.286Z,7.66
2018-02-07T09:07:06.976Z,8.18
2018-02-07T09:10:48.129Z,8.54
2018-02-07T09:11:47.691Z,8.65
2018-02-07T09:12:51.573Z,8.79
2018-02-07T09:13:48.180Z,8.91
2018-02-07T09:21:39.151Z,9.63
2018-02-07T09:23:55.885Z,9.63
2018-02-07T09:34:50.848Z,9.63
2018-02-07T09:36:58.896Z,9.71
2018-02-07T09:39:20.348Z,10.01
2018-02-07T09:40:11.160Z,10.04
2018-02-07T09:43:02.152Z,10.18
2018-02-07T09:43:41.311Z,10.36
2018-02-07T09:44:21.825Z,10.52
2018-02-07T09:45:02.575Z,10.65
2018-02-07T09:45:42.748Z,10.81
2018-02-07T09:46:23.327Z,10.75
2018-02-07T09:48:07.082Z,10.91
2018-02-07T09:48:47.145Z,10.78
2018-02-07T09:49:27.571Z,10.87
2018-02-07T09:50:08.176Z,10.93
2018-02-07T09:50:48.729Z,10.78
2018-02-07T09:51:30.111Z,10.72
2018-02-07T09:52:10.873Z,10.69
2018-02-07T09:52:51.362Z,10.52
2018-02-07T09:53:32.723Z,10.32
2018-02-07T09:54:13.363Z,10.24
2018-02-07T09:54:53.768Z,9.99
2018-02-07T09:55:34.215Z,9.88
2018-02-07T09:56:14.758Z,9.7
2018-02-07T09:56:55.398Z,9.55
2018-02-07T09:57:36.882Z,9.37
2018-02-07T09:58:17.346Z,9.35
2018-02-07T09:58:57.348Z,9.27
2018-02-07T09:59:38.199Z,9.32
2018-02-07T10:00:18.630Z,9.2
2018-02-07T10:00:59.159Z,9.08
2018-02-07T10:01:40.606Z,9.03
2018-02-07T10:02:21.274Z,8.89
2018-02-07T10:03:01.973Z,8.78
2018-02-07T10:03:44.304Z,8.73
2018-02-07T10:04:25.011Z,8.65
2018-02-07T10:43:03.854Z,11.96
2018-02-07T10:44:51.371Z,12.11
2018-02-07T10:45:33.624Z,12.18
2018-02-07T10:46:14.102Z,12.15
2018-02-07T10:46:54.438Z,12.22
2018-02-07T10:47:34.843Z,12.37
2018-02-07T10:48:15.331Z,12.22
2018-02-07T10:50:29.616Z,11.85
2018-02-07T10:51:11.270Z,11.81
2018-02-07T10:51:51.778Z,11.64
2018-02-07T10:52:32.170Z,11.42
2018-02-07T10:53:12.698Z,11.41
2018-02-07T10:53:53.033Z,11.35
2018-02-07T10:54:33.485Z,11.2
2018-02-07T10:55:14.133Z,11.13
2018-02-07T10:55:55.091Z,10.84
2018-02-07T10:56:35.142Z,10.9
2018-02-07T10:57:15.720Z,10.72
2018-02-07T10:57:57.202Z,10.75
2018-02-07T10:58:37.839Z,10.63
2018-02-07T10:59:18.268Z,10.66
2018-02-07T10:59:58.654Z,10.78
2018-02-07T11:00:39.113Z,10.9
2018-02-07T11:01:19.895Z,11.09
2018-02-07T11:02:01.061Z,11.08
2018-02-07T11:02:53.554Z,10.86
2018-02-07T11:07:23.308Z,10.86
2018-02-07T11:08:19.195Z,10.73
2018-02-07T11:09:12.373Z,10.7
2018-02-07T11:13:49.335Z,10.38
2018-02-07T11:16:22.052Z,10.72
2018-02-07T11:17:14.599Z,10.84
2018-02-07T11:19:34.374Z,10.62
2018-02-07T11:20:15.739Z,10.55
2018-02-07T11:20:56.500Z,10.44
2018-02-07T11:21:36.633Z,10.44
2018-02-07T11:22:18.041Z,10.39
2018-02-07T11:22:59.384Z,10.36
2018-02-07T11:28:43.322Z,10.16
2018-02-07T11:29:23.855Z,10.02
2018-02-07T11:30:04.151Z,9.98
2018-02-07T11:30:44.511Z,9.98
2018-02-07T11:31:24.924Z,9.85
2018-02-07T11:32:05.407Z,9.68
2018-02-07T11:32:45.742Z,9.73
2018-02-07T11:33:26.179Z,9.62
2018-02-07T11:34:06.594Z,9.56
2018-02-07T11:34:46.953Z,9.44
2018-02-07T11:35:27.346Z,9.5
2018-02-07T11:36:07.747Z,9.38
2018-02-07T11:36:48.307Z,9.26
2018-02-07T11:37:28.813Z,9.3
2018-02-07T11:38:09.188Z,9.23
2018-02-07T11:40:03.071Z,9.1
2018-02-07T11:42:01.067Z,8.96
2018-02-07T11:46:29.526Z,8.93
2018-02-07T11:47:11.103Z,8.79
2018-02-07T11:47:51.624Z,8.63
2018-02-07T11:48:32.030Z,8.73
2018-02-07T11:49:12.477Z,8.71
2018-02-07T11:49:52.823Z,8.64
2018-02-07T11:50:33.294Z,8.73
2018-02-07T11:51:13.668Z,8.73
2018-02-07T11:51:54.039Z,8.86
2018-02-07T11:52:36.564Z,8.88
2018-02-07T11:53:17.203Z,8.71
2018-02-07T11:53:57.651Z,8.68
2018-02-07T11:54:47.123Z,8.71
2018-02-07T11:55:27.567Z,8.63
2018-02-07T11:56:07.922Z,8.57
2018-02-07T11:56:48.353Z,8.55
2018-02-07T11:57:28.800Z,8.57
2018-02-07T11:58:09.166Z,8.52
2018-02-07T11:58:49.593Z,8.52
2018-02-07T11:59:29.989Z,8.46
2018-02-07T12:00:10.387Z,8.46
2018-02-07T12:00:50.778Z,8.52
2018-02-07T12:01:31.238Z,8.55
2018-02-07T12:02:11.541Z,8.47
2018-02-07T12:02:51.937Z,8.42
2018-02-07T12:05:21.593Z,8.5
2018-02-07T12:06:09.115Z,8.49
2018-02-07T12:06:49.672Z,8.49
2018-02-07T12:07:30.536Z,8.54
2018-02-07T12:08:11.503Z,8.52
2018-02-07T12:08:52.301Z,8.64
2018-02-07T12:09:33.010Z,8.64
2018-02-07T12:10:13.737Z,8.76
2018-02-07T12:10:54.213Z,8.78
2018-02-07T12:11:36.126Z,8.82
2018-02-07T12:12:15.858Z,8.96
2018-02-07T12:12:56.443Z,8.86
2018-02-07T12:13:37.227Z,8.78
2018-02-07T12:14:18.477Z,8.76
2018-02-07T12:14:58.619Z,8.79
2018-02-07T12:15:40.012Z,8.86
2018-02-07T12:16:20.570Z,8.85
2018-02-07T12:17:02.180Z,8.78
2018-02-07T12:17:43.117Z,8.82
2018-02-07T12:18:24.074Z,8.82
2018-02-07T12:19:04.776Z,8.65
2018-02-07T12:19:45.347Z,8.73
2018-02-07T12:20:26.038Z,8.75
2018-02-07T12:21:06.482Z,8.75
2018-02-07T12:21:46.908Z,8.75
2018-02-07T12:22:27.254Z,8.75
2018-02-07T12:23:07.651Z,8.82
2018-02-07T12:23:54.338Z,8.73
2018-02-07T12:24:34.686Z,8.73
2018-02-07T12:25:15.157Z,8.75
2018-02-07T12:25:55.636Z,8.68
2018-02-07T12:26:36.064Z,8.76
2018-02-07T12:27:16.781Z,8.78
2018-02-07T12:29:29.824Z,8.82
2018-02-07T12:30:12.497Z,8.76
2018-02-07T12:30:53.277Z,8.73
2018-02-07T12:31:34.060Z,8.83
2018-02-07T12:32:14.851Z,8.85
2018-02-07T12:32:55.258Z,8.89
2018-02-07T12:33:35.824Z,8.86
2018-02-07T12:34:16.212Z,8.75
2018-02-07T12:34:56.558Z,8.85
2018-02-07T12:35:37.169Z,8.89
2018-02-07T12:36:17.838Z,8.75
2018-02-07T12:36:58.153Z,8.86
2018-02-07T12:37:39.086Z,8.82
2018-02-07T12:38:19.413Z,8.78
2018-02-07T12:38:59.864Z,8.73
2018-02-07T12:39:40.297Z,8.7
2018-02-07T12:40:20.767Z,8.58
2018-02-07T12:41:01.130Z,8.43
2018-02-07T12:41:41.946Z,8.43
2018-02-07T12:42:22.414Z,8.39